Hatteras, North Carolina
Current Conditions -  °F | °C
As of 10:51 AM on Friday 24 Oct 2014 (Local Time) from KHSE Reporting Station
Clear Clear  
Wind Chill: 59°   Ceiling: Unl
Heat Index: 59°   Visibility: 10mi
Dew Point: 50°   Wind: 9mph
Humidity: 72%   Direction: 320°NW
Pressure: 30"   Gusts: NA
Location:  35.22°N, 75.69°W
Report Text: KHSE 241451Z AUTO 32008KT 10SM CLR 15/10 A3000 RMK AO2 SLP160 T01500100 53011 TSNO
Loading
Personal Weather Stations






























Interactive Weather Map
Tropical Storm Tracking
New forecast layout! Learn more

10-Day Weather Forecast

Advertisements
Track Severe Weather on mobile